Time;durP1;ratioP1;P1;durP2;ratioP2;P2;SDS_P1;SDS_P2;PMS_P1;PMS_P2;Temp;Humidity;BMP_temperature;BMP_pressure;BME280_temperature;BME280_humidity;BME280_pressure;Samples;Min_cycle;Max_cycle;Signal;HPM_P1;HPM_P2
2024/04/06 00:00:14;;;;;;;7.72;3.75;;;;;;;14.57;84.28;100732.97;4983684;28;20081;-82
2024/04/06 00:02:41;;;;;;;5.03;3.38;;;;;;;14.57;84.60;100727.63;4984961;28;20067;-82
2024/04/06 00:05:09;;;;;;;5.57;3.40;;;;;;;14.52;84.74;100732.59;4983385;28;20055;-82
2024/04/06 00:07:49;;;;;;;7.10;3.17;;;;;;;14.58;84.41;100728.47;4982696;28;20057;-83
2024/04/06 00:10:50;;;;;;;8.32;3.78;;;;;;;14.54;84.59;100719.13;4970700;28;20047;-82
2024/04/06 00:13:42;;;;;;;5.25;3.45;;;;;;;14.50;84.53;100718.59;4983220;28;20115;-82
2024/04/06 00:16:10;;;;;;;5.60;3.53;;;;;;;14.46;85.21;100727.84;4983529;28;20059;-81
2024/04/06 00:18:39;;;;;;;5.18;3.30;;;;;;;14.51;84.65;100725.63;5118567;23;20436;-80
2024/04/06 00:21:05;;;;;;;5.32;3.10;;;;;;;14.51;84.71;100732.75;5001126;28;20046;-81
2024/04/06 00:23:31;;;;;;;7.68;3.55;;;;;;;14.49;84.86;100732.91;5001305;28;20082;-83
2024/04/06 00:26:00;;;;;;;5.00;3.65;;;;;;;14.41;85.38;100728.31;5003024;28;20462;-85
2024/04/06 00:28:28;;;;;;;5.80;3.85;;;;;;;14.37;85.45;100718.97;4987728;28;20469;-83
2024/04/06 00:30:54;;;;;;;8.65;3.70;;;;;;;14.37;85.75;100731.47;4983831;28;20078;-84
2024/04/06 00:33:21;;;;;;;6.47;4.20;;;;;;;14.32;85.83;100731.09;4977427;28;20094;-83
2024/04/06 00:35:47;;;;;;;5.13;3.50;;;;;;;14.30;85.93;100723.28;4983167;28;20134;-83
2024/04/06 00:38:16;;;;;;;5.30;3.45;;;;;;;14.30;85.74;100730.44;4984550;28;20054;-85
2024/04/06 00:40:42;;;;;;;6.50;3.65;;;;;;;14.28;85.99;100724.41;4985003;28;20051;-84
2024/04/06 00:43:20;;;;;;;5.35;3.40;;;;;;;14.27;86.02;100720.91;4985383;28;20494;-85
2024/04/06 00:46:15;;;;;;;4.80;3.45;;;;;;;14.26;85.93;100718.44;4981188;28;20050;-83
2024/04/06 00:49:39;;;;;;;5.50;3.63;;;;;;;14.26;85.76;100708.59;4971884;28;20137;-83
2024/04/06 00:52:08;;;;;;;7.80;3.78;;;;;;;14.23;85.66;100711.56;4962192;28;20083;-82
2024/04/06 00:54:45;;;;;;;7.50;4.05;;;;;;;14.21;85.87;100713.56;4988762;28;20054;-81
2024/04/06 00:57:54;;;;;;;4.55;3.55;;;;;;;14.23;85.78;100708.06;4990511;28;20085;-83
2024/04/06 01:00:37;;;;;;;8.18;3.55;;;;;;;14.20;86.27;100703.06;4976747;28;20051;-83
2024/04/06 01:03:35;;;;;;;6.68;3.90;;;;;;;14.13;86.29;100713.50;4983806;28;20065;-83
2024/04/06 01:06:04;;;;;;;6.00;3.97;;;;;;;14.07;86.74;100709.66;4945548;28;20242;-85
2024/04/06 01:15:34;;;;;;;10.10;4.55;;;;;;;13.95;87.54;100710.88;4875696;29;20093;-84
2024/04/06 01:18:32;;;;;;;5.78;4.55;;;;;;;13.95;87.54;100710.03;4936852;28;20046;-81
2024/04/06 01:24:39;;;;;;;;;;;;;;;13.95;87.16;100713.53;4898883;29;20068;-83
2024/04/06 01:27:24;;;;;;;9.18;4.93;;;;;;;13.90;87.47;100714.00;4929470;28;19922;-83
2024/04/06 01:29:53;;;;;;;7.60;5.30;;;;;;;13.84;87.82;100713.75;4984579;28;20078;-83
2024/04/06 01:32:24;;;;;;;9.60;4.70;;;;;;;13.72;88.08;100715.00;4991215;28;20055;-85
2024/04/06 01:35:07;;;;;;;6.68;4.50;;;;;;;13.70;88.20;100716.97;4984584;28;20057;-81
2024/04/06 01:37:50;;;;;;;;;;;;;;;13.67;88.32;100714.63;4985513;28;20077;-82
2024/04/06 01:41:06;;;;;;;;;;;;;;;;;;;;;
2024/04/06 01:43:57;;;;;;;6.78;4.47;;;;;;;13.60;88.48;100727.69;4922092;28;20063;-83
2024/04/06 01:46:27;;;;;;;6.47;4.50;;;;;;;13.54;88.60;100718.50;4976755;28;20066;-84
2024/04/06 01:49:48;;;;;;;7.28;4.80;;;;;;;13.53;88.71;100724.81;4983795;28;20153;-84
2024/04/06 01:52:38;;;;;;;5.72;4.07;;;;;;;13.46;89.17;100726.38;4984852;28;20454;-85
2024/04/06 01:55:54;;;;;;;9.48;4.68;;;;;;;13.42;89.41;100727.66;4985562;28;20420;-84
2024/04/06 01:58:57;;;;;;;7.57;4.72;;;;;;;13.32;89.61;100733.03;4974564;28;20078;-84
2024/04/06 02:05:41;;;;;;;;;;;;;;;;;;;;;
2024/04/06 02:09:10;;;;;;;7.47;4.85;;;;;;;13.12;90.43;100744.72;4962379;28;20058;-84
2024/04/06 02:16:13;;;;;;;9.63;5.75;;;;;;;12.95;91.46;100746.38;4976107;28;20121;-85
2024/04/06 02:26:41;;;;;;;7.90;4.45;;;;;;;12.82;92.10;100727.28;4946885;28;20134;-83
2024/04/06 02:29:15;;;;;;;6.85;4.03;;;;;;;12.79;91.88;100723.06;4981021;28;20351;-84
2024/04/06 02:36:04;;;;;;;6.22;4.40;;;;;;;12.73;92.31;100714.88;4951276;28;20082;-84
2024/04/06 02:42:36;;;;;;;6.90;4.57;;;;;;;12.70;91.93;100709.84;4877408;29;20071;-86
2024/04/06 02:45:15;;;;;;;6.45;4.30;;;;;;;12.63;91.79;100707.78;4975876;28;20063;-84
2024/04/06 02:50:46;;;;;;;7.20;4.78;;;;;;;12.56;92.03;100680.13;5000296;28;20054;-84
2024/04/06 02:53:16;;;;;;;7.45;4.60;;;;;;;12.59;91.99;100682.50;4990933;28;20072;-84
2024/04/06 02:55:44;;;;;;;7.80;4.53;;;;;;;12.47;92.22;100678.34;4994629;28;20057;-84
2024/04/06 02:58:20;;;;;;;6.53;4.75;;;;;;;12.50;92.17;100686.03;4990466;28;20120;-85
2024/04/06 03:00:49;;;;;;;6.63;4.70;;;;;;;12.51;92.16;100687.69;4976934;28;20102;-83
2024/04/06 03:03:20;;;;;;;7.68;4.68;;;;;;;12.53;91.82;100680.41;4966905;28;20134;-85
2024/04/06 03:05:50;;;;;;;5.53;4.30;;;;;;;12.60;91.69;100678.84;4975201;28;20062;-83
2024/04/06 03:08:15;;;;;;;10.93;4.80;;;;;;;12.57;91.94;100676.47;4974885;28;20047;-83
2024/04/06 03:10:42;;;;;;;7.57;4.30;;;;;;;12.45;91.99;100669.69;4975187;28;20498;-83
2024/04/06 03:13:08;;;;;;;9.38;4.32;;;;;;;12.47;92.05;100675.69;4983023;28;20051;-81
2024/04/06 03:15:36;;;;;;;6.45;4.28;;;;;;;12.44;92.28;100672.47;4982855;28;20507;-82
2024/04/06 03:18:03;;;;;;;4.88;4.10;;;;;;;12.50;91.86;100670.09;4981644;28;20051;-81
2024/04/06 03:20:33;;;;;;;7.53;4.57;;;;;;;12.45;91.97;100672.34;4981814;28;20054;-81
2024/04/06 03:23:01;;;;;;;6.43;5.03;;;;;;;12.33;92.65;100671.69;4982686;28;20085;-82
2024/04/06 03:25:31;;;;;;;6.13;4.03;;;;;;;12.23;93.38;100678.00;4981228;28;20079;-81
2024/04/06 03:27:56;;;;;;;7.40;4.25;;;;;;;12.19;93.61;100676.59;4991673;28;20058;-78
2024/04/06 03:30:24;;;;;;;8.02;4.28;;;;;;;12.17;93.38;100673.25;4997273;28;20171;-85
2024/04/06 03:32:52;;;;;;;6.72;4.53;;;;;;;12.09;93.65;100687.22;4996318;28;20135;-84
2024/04/06 03:35:22;;;;;;;5.28;4.30;;;;;;;12.07;93.52;100690.03;4996635;28;20110;-83
2024/04/06 03:37:50;;;;;;;8.70;4.55;;;;;;;12.03;94.19;100695.78;4988770;28;20062;-84
2024/04/06 03:40:16;;;;;;;6.75;4.53;;;;;;;12.10;93.76;100697.72;4977049;28;20201;-83
2024/04/06 03:42:46;;;;;;;6.20;4.35;;;;;;;12.12;93.45;100694.91;4984331;28;20283;-83
2024/04/06 03:45:14;;;;;;;9.55;4.93;;;;;;;12.09;93.69;100684.59;4988895;28;20074;-81
2024/04/06 03:47:58;;;;;;;8.32;4.88;;;;;;;12.14;93.40;100693.81;4987137;28;20490;-82
2024/04/06 03:50:28;;;;;;;6.20;4.28;;;;;;;12.07;93.56;100686.56;4987074;28;20050;-83
2024/04/06 03:53:12;;;;;;;9.55;4.60;;;;;;;12.08;93.88;100696.19;4978631;28;20063;-84
2024/04/06 03:56:22;;;;;;;8.10;4.60;;;;;;;12.06;93.93;100692.84;4987384;28;20110;-83
2024/04/06 03:59:02;;;;;;;7.65;4.78;;;;;;;12.05;94.00;100684.03;4967759;28;20055;-83
2024/04/06 04:01:48;;;;;;;8.50;5.40;;;;;;;12.13;93.30;100678.84;4988074;28;20055;-83
2024/04/06 04:11:58;;;;;;;8.00;4.72;;;;;;;12.10;93.03;100686.28;4964108;28;20055;-84
2024/04/06 04:15:14;;;;;;;9.02;5.05;;;;;;;12.06;93.44;100685.72;4992541;28;20049;-84
2024/04/06 04:23:41;;;;;;;11.25;5.20;;;;;;;12.12;92.68;100663.09;5004005;28;20066;-82
2024/04/06 04:26:07;;;;;;;6.38;4.72;;;;;;;12.14;92.43;100669.94;5007196;28;20074;-82
2024/04/06 04:28:36;;;;;;;6.70;4.78;;;;;;;12.09;92.94;100680.09;5007805;28;20058;-84
2024/04/06 04:31:14;;;;;;;8.75;5.05;;;;;;;12.06;93.16;100672.47;5007788;28;20054;-83
2024/04/06 04:33:44;;;;;;;7.07;4.93;;;;;;;12.06;93.16;100674.28;5004559;28;20050;-83
2024/04/06 04:36:14;;;;;;;8.77;5.18;;;;;;;12.01;93.43;100680.00;5003978;28;20058;-84
2024/04/06 04:38:49;;;;;;;7.63;5.38;;;;;;;12.05;93.27;100673.41;4993828;28;20050;-81
2024/04/06 04:41:32;;;;;;;6.47;5.35;;;;;;;12.04;92.78;100673.56;4993242;28;20539;-84
2024/04/06 04:44:19;;;;;;;11.07;5.90;;;;;;;12.00;92.92;100677.47;5001419;28;20108;-84
2024/04/06 04:46:56;;;;;;;8.63;5.70;;;;;;;12.00;93.17;100665.06;4966478;28;20077;-83
2024/04/06 04:49:33;;;;;;;8.25;5.30;;;;;;;11.92;92.98;100659.66;5001209;28;20061;-82
2024/04/06 04:52:41;;;;;;;7.13;5.30;;;;;;;11.98;93.07;100661.72;5002039;28;20069;-83
2024/04/06 04:55:41;;;;;;;6.35;4.65;;;;;;;11.92;92.92;100664.94;5003951;28;20070;-84
2024/04/06 04:59:25;;;;;;;7.85;4.78;;;;;;;11.85;93.44;100666.47;5003814;28;20058;-85
2024/04/06 05:02:53;;;;;;;;;;;;;;;;;;;;;
2024/04/06 05:05:27;;;;;;;9.38;4.88;;;;;;;11.88;92.84;100672.34;4942384;29;20083;-82
2024/04/06 05:07:55;;;;;;;9.13;4.90;;;;;;;11.81;93.42;100676.50;4959170;28;20047;-84
2024/04/06 05:10:24;;;;;;;7.95;4.72;;;;;;;11.93;92.46;100671.91;5004333;28;20067;-84
2024/04/06 05:12:50;;;;;;;9.80;4.78;;;;;;;11.94;92.31;100678.91;5002873;28;20050;-83
2024/04/06 05:15:17;;;;;;;6.55;4.72;;;;;;;11.98;92.69;100679.44;5003704;28;20528;-83
2024/04/06 05:17:42;;;;;;;6.88;4.93;;;;;;;12.01;92.25;100680.00;5001901;28;20054;-84
2024/04/06 05:20:09;;;;;;;8.27;5.05;;;;;;;12.01;92.14;100673.84;5000011;28;20050;-82
2024/04/06 05:22:36;;;;;;;6.65;4.50;;;;;;;12.07;91.20;100663.50;5000448;28;20078;-81
2024/04/06 05:25:05;;;;;;;11.18;5.05;;;;;;;12.12;91.53;100660.44;4984647;28;20129;-83
2024/04/06 05:27:31;;;;;;;7.45;4.72;;;;;;;12.21;91.05;100659.56;4994359;28;20055;-82
2024/04/06 05:29:57;;;;;;;6.72;4.47;;;;;;;12.25;90.76;100654.81;4998642;28;20117;-83
2024/04/06 05:32:23;;;;;;;9.13;4.78;;;;;;;12.36;90.27;100652.81;4991577;28;20046;-81
2024/04/06 05:34:50;;;;;;;7.75;4.95;;;;;;;12.41;89.81;100644.41;4999583;28;20138;-83
2024/04/06 05:37:15;;;;;;;7.85;5.00;;;;;;;12.48;89.57;100645.50;4994101;28;20085;-82
2024/04/06 05:39:43;;;;;;;8.13;4.90;;;;;;;12.62;89.49;100652.16;5004044;28;20046;-80
2024/04/06 05:42:09;;;;;;;8.43;4.88;;;;;;;12.72;88.45;100652.94;4990967;28;20074;-83
2024/04/06 05:45:07;;;;;;;7.60;4.78;;;;;;;12.86;88.14;100654.28;4998725;28;20493;-82
2024/04/06 05:47:33;;;;;;;12.10;4.63;;;;;;;12.92;87.89;100647.53;4983799;28;20058;-82
2024/04/06 05:50:04;;;;;;;9.13;4.90;;;;;;;13.07;87.46;100646.03;4996476;28;20061;-83
2024/04/06 05:52:30;;;;;;;7.18;4.40;;;;;;;13.09;87.18;100647.56;4987110;28;20050;-82
2024/04/06 05:54:59;;;;;;;8.70;4.80;;;;;;;13.14;86.88;100644.44;5002382;28;20081;-85
2024/04/06 05:57:25;;;;;;;7.22;4.60;;;;;;;13.21;86.72;100650.00;5000533;28;20050;-83
2024/04/06 06:22:48;;;;;;;5.82;4.00;;;;;;;14.27;81.28;100640.22;3065973;23;20050;-80
2024/04/06 06:52:35;;;;;;;9.18;4.30;;;;;;;17.69;66.86;100637.19;5567595;23;20051;-80
2024/04/06 08:05:52;;;;;;;7.80;4.90;;;;;;;21.51;51.03;100613.38;5283189;23;20426;-82
2024/04/06 08:09:12;;;;;;;8.75;3.70;;;;;;;20.79;51.04;100604.94;4983037;28;20133;-82
2024/04/06 08:19:10;;;;;;;6.70;3.40;;;;;;;21.57;48.54;100588.34;4890309;29;20104;-82
2024/04/06 08:26:04;;;;;;;7.68;4.30;;;;;;;21.49;44.69;100594.75;4913388;29;20162;-80
2024/04/06 08:57:58;;;;;;;5.28;2.90;;;;;;;21.95;41.12;100583.94;4955178;28;20054;-83
2024/04/06 09:00:28;;;;;;;5.68;2.92;;;;;;;22.16;39.78;100577.50;4993215;28;20047;-82
2024/04/06 09:03:07;;;;;;;4.70;2.67;;;;;;;22.25;41.21;100577.28;5006838;28;20038;-84
2024/04/06 09:05:46;;;;;;;5.00;2.90;;;;;;;22.42;39.82;100578.47;5005768;28;20077;-83
2024/04/06 09:08:16;;;;;;;6.93;2.95;;;;;;;22.60;39.00;100577.78;4995539;28;20034;-84
2024/04/06 09:10:46;;;;;;;3.83;2.50;;;;;;;22.30;39.20;100567.50;4991940;28;20042;-81
2024/04/06 09:13:17;;;;;;;9.25;3.00;;;;;;;22.26;41.57;100578.94;4980567;28;20065;-83
2024/04/06 09:15:49;;;;;;;5.60;3.10;;;;;;;22.19;41.76;100566.31;4980464;28;20057;-81
2024/04/06 09:18:17;;;;;;;8.88;2.85;;;;;;;22.23;42.19;100557.78;4986192;28;20074;-81
2024/04/06 09:20:50;;;;;;;4.35;2.55;;;;;;;22.32;42.92;100560.00;4992200;28;20069;-81
2024/04/06 09:23:21;;;;;;;11.07;3.67;;;;;;;22.68;43.96;100562.16;4991302;28;20202;-81
2024/04/06 09:25:59;;;;;;;7.80;3.30;;;;;;;22.84;42.47;100565.41;4989765;28;20053;-83
2024/04/06 09:28:28;;;;;;;4.97;2.88;;;;;;;23.06;43.92;100561.34;4966853;28;20134;-82
2024/04/06 09:30:57;;;;;;;4.15;2.65;;;;;;;22.67;42.37;100562.38;4983480;28;20149;-80
2024/04/06 09:33:29;;;;;;;5.47;3.00;;;;;;;22.34;42.33;100551.72;4987636;28;20429;-82
2024/04/06 09:36:00;;;;;;;28.92;4.82;;;;;;;22.51;41.66;100546.69;4988082;28;20054;-83
2024/04/06 09:38:29;;;;;;;13.88;4.88;;;;;;;22.30;40.36;100537.84;4986963;28;20070;-81
2024/04/06 09:41:05;;;;;;;4.65;2.80;;;;;;;22.30;40.34;100529.75;4994598;28;20564;-84
2024/04/06 09:43:34;;;;;;;3.25;2.60;;;;;;;22.24;39.55;100529.78;4992758;28;20054;-83
2024/04/06 09:46:03;;;;;;;9.35;3.10;;;;;;;22.32;40.60;100518.75;4978733;28;20050;-81
2024/04/06 09:48:54;;;;;;;5.63;2.80;;;;;;;22.26;40.87;100515.03;4983448;28;20057;-81
2024/04/06 09:51:20;;;;;;;4.90;2.63;;;;;;;22.53;41.01;100510.34;4977290;28;20051;-82
2024/04/06 09:58:07;;;;;;;4.53;2.47;;;;;;;22.84;41.73;100506.03;4995689;28;20044;-82
2024/04/06 10:01:32;;;;;;;4.32;2.30;;;;;;;22.80;40.05;100500.22;4888129;29;20144;-87
2024/04/06 10:04:33;;;;;;;5.05;2.90;;;;;;;22.76;38.97;100498.19;4952173;28;20512;-82
2024/04/06 10:07:28;;;;;;;5.43;2.63;;;;;;;22.64;38.81;100504.28;4983355;28;20618;-81
2024/04/06 10:10:21;;;;;;;6.85;2.78;;;;;;;22.76;40.43;100490.91;4988547;28;20061;-83
2024/04/06 10:13:25;;;;;;;;;;;;;;;23.08;37.63;100482.81;4974171;28;20073;-83
2024/04/06 10:16:14;;;;;;;4.20;2.35;;;;;;;23.25;38.70;100489.34;4984007;28;20012;-84
2024/04/06 10:19:17;;;;;;;2.22;1.98;;;;;;;23.05;37.61;100477.88;5002514;23;20081;-85
2024/04/06 10:31:41;;;;;;;4.53;2.55;;;;;;;23.74;39.07;100474.13;4888045;23;20067;-83
2024/04/06 10:34:07;;;;;;;4.72;2.50;;;;;;;23.68;37.76;100477.75;4956431;28;20528;-80
2024/04/06 10:36:34;;;;;;;4.70;2.90;;;;;;;23.92;37.85;100479.53;4958132;28;20075;-80
2024/04/06 10:39:04;;;;;;;4.00;2.67;;;;;;;24.20;36.82;100473.59;4965910;28;20050;-79
2024/04/06 10:41:32;;;;;;;3.65;2.63;;;;;;;24.34;36.86;100468.03;4976425;28;20074;-83
2024/04/06 10:44:00;;;;;;;5.90;3.13;;;;;;;24.45;37.13;100461.84;4975195;28;20081;-81
2024/04/06 10:46:27;;;;;;;6.50;2.70;;;;;;;24.64;37.75;100465.31;4977062;28;20043;-80
2024/04/06 10:48:54;;;;;;;4.88;2.75;;;;;;;24.49;36.52;100457.63;4978871;28;20050;-79
2024/04/06 10:51:21;;;;;;;5.05;2.50;;;;;;;24.85;35.76;100453.97;4975167;28;20043;-79
2024/04/06 10:53:49;;;;;;;4.35;2.30;;;;;;;24.76;33.58;100454.53;4979575;28;20110;-80
2024/04/06 10:56:16;;;;;;;5.40;3.05;;;;;;;24.60;32.67;100437.91;4969251;28;20053;-79
2024/04/06 10:58:42;;;;;;;2.92;2.13;;;;;;;24.71;31.69;100460.66;4979482;28;20070;-81
2024/04/06 11:01:15;;;;;;;7.28;2.85;;;;;;;24.79;32.38;100433.25;4965479;28;20069;-79
2024/04/06 11:03:41;;;;;;;3.70;2.50;;;;;;;24.92;30.83;100424.91;4977462;28;20075;-80
2024/04/06 11:06:08;;;;;;;6.90;2.45;;;;;;;24.89;31.71;100435.38;4971872;28;20042;-81
2024/04/06 11:08:34;;;;;;;3.10;2.47;;;;;;;25.04;30.32;100426.78;4971191;28;20086;-79
2024/04/06 11:11:01;;;;;;;4.90;2.40;;;;;;;24.83;29.84;100441.72;4987524;28;20050;-81
2024/04/06 11:13:26;;;;;;;3.55;2.50;;;;;;;24.90;28.88;100426.19;4984070;28;20515;-79
2024/04/06 11:15:53;;;;;;;3.75;2.35;;;;;;;25.08;30.21;100434.25;4986048;28;20046;-82
2024/04/06 11:18:20;;;;;;;2.78;1.92;;;;;;;24.92;29.15;100433.03;4981186;28;20078;-81
2024/04/06 11:20:47;;;;;;;3.58;2.35;;;;;;;24.96;28.92;100415.25;4980743;28;20050;-81
2024/04/06 11:23:17;;;;;;;5.13;2.72;;;;;;;24.77;29.13;100435.34;4978658;28;20167;-79
2024/04/06 11:25:44;;;;;;;4.05;2.30;;;;;;;24.85;29.68;100428.78;4979673;28;20106;-80
2024/04/06 11:28:10;;;;;;;4.22;2.47;;;;;;;24.83;28.22;100431.72;4977751;28;20078;-81
2024/04/06 11:30:36;;;;;;;3.67;2.38;;;;;;;25.03;29.55;100431.38;4976395;28;20054;-79
2024/04/06 11:33:03;;;;;;;4.97;2.55;;;;;;;24.84;30.04;100432.56;4982032;28;20046;-80
2024/04/06 11:35:31;;;;;;;5.85;2.75;;;;;;;25.09;29.89;100424.22;4971515;28;20039;-82
2024/04/06 11:37:58;;;;;;;3.80;2.78;;;;;;;25.16;30.71;100424.94;4982900;28;20085;-80
2024/04/06 11:40:25;;;;;;;5.13;2.17;;;;;;;25.27;29.80;100431.41;4975994;28;20089;-79
2024/04/06 11:42:51;;;;;;;6.78;2.30;;;;;;;25.43;30.09;100425.28;4984380;28;20050;-81
2024/04/06 11:45:17;;;;;;;4.10;2.40;;;;;;;25.45;28.77;100418.59;4976648;28;20077;-80
2024/04/06 11:47:43;;;;;;;3.42;2.20;;;;;;;25.70;29.04;100421.00;4989196;28;20526;-80
2024/04/06 11:50:16;;;;;;;5.25;2.40;;;;;;;25.82;29.33;100433.75;4976516;28;20034;-80
2024/04/06 11:52:43;;;;;;;4.60;2.15;;;;;;;25.80;27.62;100435.88;4974699;28;20065;-80
2024/04/06 11:55:10;;;;;;;2.88;1.83;;;;;;;25.65;27.63;100428.22;4981396;28;20472;-78
2024/04/06 11:57:36;;;;;;;3.83;2.80;;;;;;;25.53;27.58;100428.22;4978564;28;20054;-81
2024/04/06 12:00:05;;;;;;;3.17;2.42;;;;;;;25.69;28.25;100427.50;4975811;28;20125;-80
2024/04/06 12:02:31;;;;;;;5.05;2.83;;;;;;;25.58;29.75;100425.66;4972751;28;20051;-79
2024/04/06 12:04:58;;;;;;;5.22;2.70;;;;;;;25.61;31.17;100417.03;4976674;28;20044;-79
2024/04/06 12:07:24;;;;;;;6.10;3.22;;;;;;;25.60;29.95;100415.38;4971618;28;20574;-81
2024/04/06 12:09:53;;;;;;;5.40;2.45;;;;;;;25.51;29.88;100416.81;4976703;28;20083;-79
2024/04/06 12:12:19;;;;;;;6.10;2.45;;;;;;;25.49;31.55;100405.38;4972030;28;20421;-79
2024/04/06 12:14:46;;;;;;;3.83;2.35;;;;;;;25.29;30.03;100413.88;4979939;28;20086;-80
2024/04/06 12:17:19;;;;;;;3.20;2.25;;;;;;;25.36;30.23;100413.75;4966788;28;20080;-78
2024/04/06 12:19:46;;;;;;;2.90;2.08;;;;;;;25.35;29.20;100415.63;4977832;28;20567;-80
2024/04/06 12:22:12;;;;;;;3.38;2.35;;;;;;;25.45;28.87;100418.59;4970276;28;20553;-79
2024/04/06 12:24:40;;;;;;;5.40;2.55;;;;;;;25.82;29.93;100412.06;4975447;28;20043;-79
2024/04/06 12:27:07;;;;;;;4.43;2.42;;;;;;;25.94;28.83;100412.88;4972955;28;20063;-79
2024/04/06 12:29:36;;;;;;;5.93;2.58;;;;;;;26.32;31.23;100412.22;4968704;28;20047;-81
2024/04/06 12:32:02;;;;;;;4.82;2.63;;;;;;;26.17;29.77;100399.19;4975652;28;20141;-81
2024/04/06 12:34:28;;;;;;;2.58;2.03;;;;;;;26.19;28.51;100402.47;4980216;28;20078;-81
2024/04/06 12:36:56;;;;;;;2.90;1.92;;;;;;;26.16;28.18;100403.00;4979054;28;20054;-80
2024/04/06 12:39:22;;;;;;;2.92;2.20;;;;;;;26.07;28.47;100393.56;4974262;28;20047;-80
2024/04/06 12:41:48;;;;;;;4.32;2.55;;;;;;;26.05;27.65;100398.41;4970786;28;20082;-80
2024/04/06 12:44:17;;;;;;;3.20;2.40;;;;;;;25.93;27.16;100394.91;4972261;28;20050;-80
2024/04/06 12:46:43;;;;;;;2.60;1.92;;;;;;;26.06;28.45;100391.09;4976777;28;20122;-79
2024/04/06 12:49:10;;;;;;;5.22;2.45;;;;;;;26.07;30.49;100392.75;4965072;28;20109;-79
2024/04/06 12:51:35;;;;;;;2.72;2.22;;;;;;;26.17;30.48;100398.38;4975303;28;20058;-79
2024/04/06 12:54:03;;;;;;;3.17;1.90;;;;;;;26.21;27.53;100400.38;4970594;28;20054;-80
2024/04/06 12:56:31;;;;;;;4.35;2.42;;;;;;;26.13;27.77;100392.63;4973782;28;20074;-84
2024/04/06 12:58:58;;;;;;;2.80;2.45;;;;;;;26.16;27.03;100386.72;4975102;28;20066;-81
2024/04/06 13:01:25;;;;;;;3.28;2.50;;;;;;;26.02;28.31;100390.75;4979311;28;20106;-83
2024/04/06 13:03:52;;;;;;;6.05;2.60;;;;;;;26.30;28.85;100387.22;4972933;28;20524;-82
2024/04/06 13:06:18;;;;;;;5.28;2.50;;;;;;;26.44;27.40;100388.59;4975358;28;20046;-81
2024/04/06 13:08:48;;;;;;;3.20;2.28;;;;;;;26.68;28.04;100372.97;4979770;28;20407;-80
2024/04/06 13:11:13;;;;;;;6.10;2.60;;;;;;;26.28;28.03;100383.09;4980242;28;20081;-83
2024/04/06 13:13:40;;;;;;;5.22;2.90;;;;;;;26.40;25.45;100378.44;4973262;28;20062;-81
2024/04/06 13:16:06;;;;;;;4.03;2.42;;;;;;;26.51;27.23;100377.56;4970244;28;20046;-81
2024/04/06 13:18:38;;;;;;;4.95;2.67;;;;;;;26.48;26.73;100363.66;4976465;28;20057;-82
2024/04/06 13:21:04;;;;;;;3.45;2.80;;;;;;;26.29;25.31;100374.72;4969201;28;20081;-79
2024/04/06 13:23:34;;;;;;;4.25;2.60;;;;;;;26.23;25.72;100381.13;4971515;28;20145;-84
2024/04/06 13:26:00;;;;;;;3.47;2.25;;;;;;;26.50;25.38;100377.81;4970651;28;20071;-83
2024/04/06 13:28:27;;;;;;;3.08;2.15;;;;;;;26.45;25.88;100363.09;4967080;28;20051;-83
2024/04/06 13:30:53;;;;;;;4.05;2.70;;;;;;;26.32;26.90;100366.09;4972565;28;20051;-81
2024/04/06 13:33:20;;;;;;;4.60;2.40;;;;;;;26.36;25.88;100361.81;4982148;28;20050;-83
2024/04/06 13:35:47;;;;;;;3.42;1.85;;;;;;;26.58;26.66;100358.44;4974423;28;20474;-81
2024/04/06 13:38:14;;;;;;;4.20;2.35;;;;;;;26.43;27.77;100348.97;4975241;28;20055;-83
2024/04/06 13:40:42;;;;;;;3.78;2.45;;;;;;;26.56;28.54;100336.94;4978274;28;20464;-83
2024/04/06 13:43:09;;;;;;;4.25;2.40;;;;;;;26.45;27.53;100338.66;4989405;28;20057;-83
2024/04/06 13:45:35;;;;;;;5.68;2.65;;;;;;;26.65;27.46;100340.06;4981749;28;20039;-84
2024/04/06 13:48:13;;;;;;;3.22;2.20;;;;;;;26.75;27.56;100350.28;4989729;28;20142;-83
2024/04/06 13:50:39;;;;;;;4.63;2.90;;;;;;;26.55;28.91;100351.59;4984670;28;20074;-82
2024/04/06 13:53:07;;;;;;;7.57;3.13;;;;;;;26.68;29.17;100353.97;4981581;28;20050;-81
2024/04/06 13:55:33;;;;;;;5.00;2.40;;;;;;;26.58;29.79;100361.13;4974767;28;20421;-83
2024/04/06 13:58:00;;;;;;;6.55;2.72;;;;;;;26.50;28.87;100362.34;4982345;28;20118;-83
2024/04/06 14:00:27;;;;;;;4.63;2.30;;;;;;;26.49;30.35;100360.72;4981243;28;20054;-81
2024/04/06 14:02:54;;;;;;;4.75;2.53;;;;;;;26.40;28.64;100368.41;4973004;28;20087;-80
2024/04/06 14:05:20;;;;;;;3.55;2.33;;;;;;;26.45;29.36;100378.56;4979878;28;20102;-80
2024/04/06 14:07:48;;;;;;;4.10;2.42;;;;;;;26.27;27.57;100376.03;4979386;28;20062;-82
2024/04/06 14:10:15;;;;;;;5.13;2.67;;;;;;;26.48;27.94;100383.50;4969211;28;20075;-81
2024/04/06 14:12:42;;;;;;;3.25;2.38;;;;;;;26.61;26.95;100377.75;4975111;28;20047;-82
2024/04/06 14:15:08;;;;;;;3.78;2.65;;;;;;;26.54;26.79;100376.28;4969885;28;20047;-82
2024/04/06 14:17:35;;;;;;;4.03;2.38;;;;;;;26.43;26.79;100389.66;4973245;28;20066;-82
2024/04/06 14:20:11;;;;;;;3.85;2.40;;;;;;;26.42;27.39;100390.69;4973973;28;20082;-81
2024/04/06 14:22:39;;;;;;;4.55;2.60;;;;;;;26.44;28.13;100398.63;4984591;28;20082;-85
2024/04/06 14:25:06;;;;;;;2.53;2.20;;;;;;;26.49;28.87;100401.44;4981668;28;20050;-84
2024/04/06 14:27:34;;;;;;;3.40;2.67;;;;;;;26.52;26.98;100402.81;4982598;28;20074;-83
2024/04/06 14:30:21;;;;;;;2.65;2.08;;;;;;;26.35;27.00;100398.19;4966581;28;20078;-84
2024/04/06 14:32:46;;;;;;;3.35;2.42;;;;;;;26.41;27.87;100391.75;4980176;28;20050;-83
2024/04/06 14:35:12;;;;;;;6.78;2.83;;;;;;;26.24;26.99;100387.38;4981837;28;20105;-83
2024/04/06 14:37:39;;;;;;;3.78;2.60;;;;;;;26.24;27.06;100381.94;4966782;28;20051;-84
2024/04/06 14:40:05;;;;;;;3.33;2.35;;;;;;;26.17;28.68;100391.06;4969314;28;20062;-85
2024/04/06 14:42:33;;;;;;;2.60;2.03;;;;;;;26.24;29.64;100390.09;4966308;28;20430;-84
2024/04/06 14:44:59;;;;;;;9.18;2.85;;;;;;;26.13;27.63;100389.91;4978850;28;20078;-84
2024/04/06 14:47:26;;;;;;;2.28;2.08;;;;;;;25.99;27.94;100393.16;4965199;28;20128;-84
2024/04/06 14:49:52;;;;;;;4.95;2.53;;;;;;;25.97;28.64;100382.53;4980329;28;20074;-84
2024/04/06 14:52:19;;;;;;;3.88;2.30;;;;;;;26.00;28.25;100397.50;4964314;28;20050;-83
2024/04/06 14:54:45;;;;;;;4.88;2.50;;;;;;;25.93;29.05;100403.88;4973376;28;20082;-83
2024/04/06 14:57:13;;;;;;;4.65;2.33;;;;;;;25.83;29.84;100398.25;4978350;28;20126;-83
2024/04/06 14:59:40;;;;;;;6.07;2.53;;;;;;;25.82;28.78;100388.50;4967163;28;20054;-84
2024/04/06 15:02:07;;;;;;;4.15;2.72;;;;;;;25.86;28.79;100392.38;4972994;28;20063;-84
2024/04/06 15:04:32;;;;;;;2.95;2.30;;;;;;;25.85;29.49;100385.31;4980107;28;20078;-84
2024/04/06 15:07:02;;;;;;;2.95;2.30;;;;;;;25.98;28.66;100392.31;4976798;28;20079;-82
2024/04/06 15:09:28;;;;;;;4.97;2.70;;;;;;;25.91;29.00;100375.38;4982221;28;20055;-81
2024/04/06 15:11:58;;;;;;;3.45;2.88;;;;;;;25.91;29.41;100378.09;4973080;28;20122;-81
2024/04/06 15:14:24;;;;;;;3.10;2.45;;;;;;;25.93;29.72;100378.66;4967606;28;20125;-81
2024/04/06 15:16:52;;;;;;;3.55;2.45;;;;;;;25.87;29.37;100371.50;4979904;28;20069;-82
2024/04/06 15:19:19;;;;;;;4.82;2.33;;;;;;;25.76;29.51;100356.94;4968982;29;20055;-81
2024/04/06 15:21:49;;;;;;;4.63;2.90;;;;;;;25.63;30.41;100355.28;4972717;28;20055;-81
2024/04/06 15:24:18;;;;;;;5.25;2.33;;;;;;;25.61;30.81;100356.56;4980948;28;20114;-80
2024/04/06 15:26:45;;;;;;;3.38;2.17;;;;;;;25.69;30.95;100351.59;4980511;28;20079;-83
2024/04/06 15:29:11;;;;;;;3.97;2.47;;;;;;;25.57;31.19;100356.22;4980012;28;20047;-81
2024/04/06 15:31:38;;;;;;;3.38;2.38;;;;;;;25.62;31.36;100352.78;4979585;28;20059;-83
2024/04/06 15:34:08;;;;;;;3.53;2.47;;;;;;;25.58;31.71;100354.31;4978831;28;20051;-82
2024/04/06 15:36:35;;;;;;;4.13;3.20;;;;;;;25.80;32.64;100359.94;4978116;28;20051;-82
2024/04/06 15:39:01;;;;;;;4.65;2.85;;;;;;;25.77;31.70;100358.56;4960792;28;20075;-82
2024/04/06 15:41:31;;;;;;;5.88;2.90;;;;;;;25.70;32.90;100361.38;4970504;28;20370;-83
2024/04/06 15:44:01;;;;;;;5.53;2.85;;;;;;;25.56;32.46;100360.00;4960031;28;20370;-83